createdAt,value
2017-10-12T00:02:04.661Z,99913.42
2017-10-12T00:04:30.615Z,99905.75
2017-10-12T00:06:56.538Z,99903.20
2017-10-12T00:09:22.477Z,99896.81
2017-10-12T00:11:48.427Z,99901.08
2017-10-12T00:14:14.368Z,99902.77
2017-10-12T00:16:40.326Z,99895.97
2017-10-12T00:19:06.263Z,99900.64
2017-10-12T00:21:32.272Z,99894.27
2017-10-12T00:23:58.216Z,99893.41
2017-10-12T00:26:24.171Z,99887.02
2017-10-12T00:28:50.118Z,99894.69
2017-10-12T00:31:16.060Z,99891.28
2017-10-12T00:33:42.010Z,99888.73
2017-10-12T00:36:07.994Z,99887.48
2017-10-12T00:38:33.961Z,99888.34
2017-10-12T00:40:59.891Z,99880.68
2017-10-12T00:43:25.847Z,99883.66
2017-10-12T00:45:51.783Z,99883.23
2017-10-12T00:48:17.719Z,99874.72
2017-10-12T00:50:43.683Z,99874.30
2017-10-12T00:53:09.622Z,99870.47
2017-10-12T00:55:35.572Z,99864.08
2017-10-12T00:58:01.548Z,99866.63
2017-10-12T01:00:27.485Z,99866.63
2017-10-12T01:02:53.432Z,99855.98
2017-10-12T01:05:19.370Z,99867.09
2017-10-12T01:07:45.312Z,99850.92
2017-10-12T01:10:11.259Z,99856.03
2017-10-12T01:12:37.204Z,99859.86
2017-10-12T01:15:03.137Z,99859.01
2017-10-12T01:17:29.085Z,99857.30
2017-10-12T01:19:55.047Z,99859.01
2017-10-12T01:22:20.986Z,99853.91
2017-10-12T01:24:46.922Z,99853.05
2017-10-12T01:27:12.858Z,99847.94
2017-10-12T01:29:38.790Z,99849.22
2017-10-12T01:32:04.742Z,99847.09
2017-10-12T01:34:30.680Z,99848.79
2017-10-12T01:36:56.630Z,99842.02
2017-10-12T01:39:22.573Z,99836.45
2017-10-12T01:41:48.511Z,99839.86
2017-10-12T01:44:14.446Z,99836.48
2017-10-12T01:46:40.399Z,99839.04
2017-10-12T01:49:06.340Z,99828.99
2017-10-12T01:51:32.276Z,99829.64
2017-10-12T01:53:58.216Z,99831.80
2017-10-12T01:56:24.185Z,99832.23
2017-10-12T01:58:50.126Z,99830.10
2017-10-12T02:01:16.080Z,99827.13
2017-10-12T02:03:42.022Z,99815.20
2017-10-12T02:06:07.969Z,99812.65
2017-10-12T02:08:33.948Z,99813.08
2017-10-12T02:10:59.892Z,99807.12
2017-10-12T02:13:25.837Z,99802.01
2017-10-12T02:15:51.780Z,99802.90
2017-10-12T02:18:17.734Z,99795.66
2017-10-12T02:20:43.703Z,99793.96
2017-10-12T02:23:09.653Z,99796.52
2017-10-12T02:25:35.608Z,99798.22
2017-10-12T02:28:01.558Z,99795.66
2017-10-12T02:30:27.500Z,99794.81
2017-10-12T02:32:53.463Z,99792.25
2017-10-12T02:35:19.398Z,99788.39
2017-10-12T02:37:45.344Z,99783.32
2017-10-12T02:40:11.284Z,99778.68
2017-10-12T02:42:37.224Z,99774.39
2017-10-12T02:45:03.183Z,99776.51
2017-10-12T02:47:29.127Z,99773.95
2017-10-12T02:49:55.084Z,99769.73
2017-10-12T02:52:21.015Z,99771.82
2017-10-12T02:54:46.969Z,99771.19
2017-10-12T02:57:12.937Z,99771.64
2017-10-12T02:59:39.027Z,99762.87
2017-10-12T03:02:04.984Z,99759.41
2017-10-12T03:04:30.939Z,99753.52
2017-10-12T03:06:56.901Z,99746.64
2017-10-12T03:09:22.827Z,99749.36
2017-10-12T03:11:49.835Z,99749.87
2017-10-12T03:14:15.783Z,99752.28
2017-10-12T03:16:41.779Z,99750.34
2017-10-12T03:19:07.729Z,99748.03
2017-10-12T03:21:33.671Z,99752.61
2017-10-12T03:23:59.871Z,99743.11
2017-10-12T03:26:25.807Z,99754.91
2017-10-12T03:28:51.756Z,99750.92
2017-10-12T03:31:17.735Z,99750.75
2017-10-12T03:33:43.764Z,99748.81
2017-10-12T03:36:09.695Z,99754.15
2017-10-12T03:38:35.633Z,99751.03
2017-10-12T03:41:01.601Z,99749.77
2017-10-12T03:43:27.533Z,99755.75
2017-10-12T03:45:53.463Z,99741.06
2017-10-12T03:48:19.399Z,99748.28
2017-10-12T03:50:45.387Z,99750.22
2017-10-12T03:53:11.337Z,99754.12
2017-10-12T03:55:37.263Z,99752.60
2017-10-12T03:58:03.211Z,99741.58
2017-10-12T04:00:29.167Z,99751.97
2017-10-12T04:02:55.107Z,99739.23
2017-10-12T04:05:21.035Z,99752.81
2017-10-12T04:07:46.959Z,99741.66
2017-10-12T04:10:12.913Z,99737.30
2017-10-12T04:12:38.843Z,99739.95
2017-10-12T04:15:04.779Z,99742.52
2017-10-12T04:17:30.738Z,99750.53
2017-10-12T04:19:56.707Z,99750.26
2017-10-12T04:22:22.653Z,99748.97
2017-10-12T04:24:48.618Z,99738.96
2017-10-12T04:27:14.553Z,99740.95
2017-10-12T04:29:40.491Z,99734.92
2017-10-12T04:32:06.438Z,99751.41
2017-10-12T04:34:32.378Z,99745.17
2017-10-12T04:36:58.335Z,99747.81
2017-10-12T04:39:24.259Z,99749.17
2017-10-12T04:41:50.210Z,99742.39
2017-10-12T04:44:16.158Z,99739.12
2017-10-12T04:46:42.129Z,99740.13
2017-10-12T04:49:08.103Z,99733.77
2017-10-12T04:51:34.031Z,99734.30
2017-10-12T04:53:59.971Z,99738.84
2017-10-12T04:56:25.903Z,99741.77
2017-10-12T04:58:52.394Z,99740.05
2017-10-12T05:01:18.343Z,99739.93
2017-10-12T05:03:44.297Z,99741.78
2017-10-12T05:06:10.239Z,99738.41
2017-10-12T05:08:36.215Z,99742.25
2017-10-12T05:11:02.139Z,99744.68
2017-10-12T05:13:28.056Z,99736.42
2017-10-12T05:15:53.999Z,99741.02
2017-10-12T05:18:19.959Z,99738.81
2017-10-12T05:20:45.898Z,99743.39
2017-10-12T05:23:11.861Z,99747.93
2017-10-12T05:25:37.795Z,99738.86
2017-10-12T05:28:03.727Z,99738.05
2017-10-12T05:30:29.667Z,99737.70
2017-10-12T05:32:55.608Z,99746.54
2017-10-12T05:35:21.574Z,99748.52
2017-10-12T05:37:47.530Z,99744.90
2017-10-12T05:40:13.458Z,99747.28
2017-10-12T05:42:39.414Z,99753.09
2017-10-12T05:45:05.371Z,99759.69
2017-10-12T05:47:31.417Z,99750.03
2017-10-12T05:49:57.365Z,99750.20
2017-10-12T05:52:23.288Z,99743.08
2017-10-12T05:54:49.209Z,99750.95
2017-10-12T05:57:15.155Z,99744.70
2017-10-12T05:59:41.126Z,99747.02
2017-10-12T06:02:07.125Z,99743.30
2017-10-12T06:04:33.065Z,99748.59
2017-10-12T06:06:59.023Z,99743.58
2017-10-12T06:09:24.974Z,99735.66
2017-10-12T06:11:50.913Z,99734.33
2017-10-12T06:14:16.843Z,99752.20
2017-10-12T06:16:42.789Z,99750.75
2017-10-12T06:19:08.742Z,99753.19
2017-10-12T06:21:34.710Z,99752.75
2017-10-12T06:24:00.671Z,99751.55
2017-10-12T06:26:26.621Z,99758.05
2017-10-12T06:28:52.559Z,99760.50
2017-10-12T06:31:18.499Z,99760.30
2017-10-12T06:33:44.426Z,99764.69
2017-10-12T06:36:10.367Z,99761.02
2017-10-12T06:38:36.313Z,99765.03
2017-10-12T06:41:02.272Z,99760.48
2017-10-12T06:43:28.211Z,99773.78
2017-10-12T06:45:54.156Z,99767.00
2017-10-12T06:48:20.120Z,99773.47
2017-10-12T06:50:46.060Z,99775.27
2017-10-12T06:53:12.017Z,99786.91
2017-10-12T06:55:37.947Z,99789.15
2017-10-12T06:58:03.899Z,99802.45
2017-10-12T07:00:29.955Z,99794.44
2017-10-12T07:02:55.978Z,99803.89
2017-10-12T07:05:21.970Z,99798.82
2017-10-12T07:07:47.941Z,99808.69
2017-10-12T07:10:13.894Z,99807.94
2017-10-12T07:12:39.831Z,99800.73
2017-10-12T07:15:05.780Z,99797.38
2017-10-12T07:17:31.770Z,99792.73
2017-10-12T07:19:57.734Z,99793.69
2017-10-12T07:22:23.678Z,99795.89
2017-10-12T07:24:49.646Z,99803.99
2017-10-12T07:27:15.598Z,99798.92
2017-10-12T07:29:41.539Z,99798.92
2017-10-12T07:32:07.509Z,99811.34
2017-10-12T07:34:33.474Z,99811.88
2017-10-12T07:36:59.410Z,99814.06
2017-10-12T07:39:25.380Z,99802.59
2017-10-12T07:41:51.338Z,99807.72
2017-10-12T07:44:17.290Z,99816.82
2017-10-12T07:46:43.222Z,99815.97
2017-10-12T07:49:09.166Z,99810.04
2017-10-12T07:51:35.132Z,99829.62
2017-10-12T07:54:01.075Z,99827.55
2017-10-12T07:56:27.014Z,99818.59
2017-10-12T07:58:52.971Z,99817.00
2017-10-12T08:01:18.901Z,99833.10
2017-10-12T08:03:44.865Z,99836.97
2017-10-12T08:06:10.850Z,99835.72
2017-10-12T08:08:36.799Z,99825.09
2017-10-12T08:11:02.750Z,99825.63
2017-10-12T08:13:28.713Z,99822.64
2017-10-12T08:15:54.658Z,99833.31
2017-10-12T08:18:20.594Z,99840.13
2017-10-12T08:20:46.572Z,99852.55
2017-10-12T08:23:12.537Z,99856.43
2017-10-12T08:25:38.478Z,99853.07
2017-10-12T08:28:04.436Z,99854.36
2017-10-12T08:30:30.371Z,99857.80
2017-10-12T08:32:56.305Z,99858.66
2017-10-12T08:35:22.235Z,99851.41
2017-10-12T08:37:48.176Z,99859.90
2017-10-12T08:40:14.112Z,99860.75
2017-10-12T08:42:40.070Z,99856.48
2017-10-12T08:45:06.037Z,99864.53
2017-10-12T08:47:31.984Z,99867.09
2017-10-12T08:49:57.932Z,99865.81
2017-10-12T08:52:23.879Z,99869.70
2017-10-12T08:54:49.888Z,99870.56
2017-10-12T08:57:15.858Z,99872.73
2017-10-12T08:59:41.816Z,99873.17
2017-10-12T09:02:07.756Z,99881.69
2017-10-12T09:04:33.695Z,99883.45
2017-10-12T09:06:59.644Z,99886.48
2017-10-12T09:09:25.602Z,99871.99
2017-10-12T09:11:51.548Z,99875.44
2017-10-12T09:14:17.494Z,99890.41
2017-10-12T09:16:43.458Z,99881.09
2017-10-12T09:19:09.409Z,99887.06
2017-10-12T09:21:35.386Z,99885.35
2017-10-12T09:24:01.345Z,99896.91
2017-10-12T09:26:27.325Z,99893.87
2017-10-12T09:28:53.328Z,99888.80
2017-10-12T09:31:19.272Z,99886.67
2017-10-12T09:33:45.238Z,99892.70
2017-10-12T09:36:11.238Z,99899.94
2017-10-12T09:38:37.178Z,99890.56
2017-10-12T09:41:03.120Z,99898.28
2017-10-12T09:43:29.113Z,99900.42
2017-10-12T09:45:55.082Z,99901.27
2017-10-12T09:48:21.024Z,99905.58
2017-10-12T09:50:46.956Z,99907.72
2017-10-12T09:53:12.942Z,99912.41
2017-10-12T09:55:38.902Z,99914.58
2017-10-12T09:58:04.830Z,99907.72
2017-10-12T10:00:30.754Z,99904.34
2017-10-12T10:02:56.732Z,99905.72
2017-10-12T10:05:22.687Z,99912.49
2017-10-12T10:07:48.678Z,99920.13
2017-10-12T10:10:14.910Z,99912.92
2017-10-12T10:12:40.876Z,99937.70
2017-10-12T10:15:06.854Z,99927.47
2017-10-12T10:17:32.793Z,99921.48
2017-10-12T10:19:58.730Z,99915.95
2017-10-12T10:22:24.686Z,99932.63
2017-10-12T10:24:50.640Z,99942.47
2017-10-12T10:27:16.604Z,99930.07
2017-10-12T10:29:42.550Z,99940.77
2017-10-12T10:32:08.491Z,99940.77
2017-10-12T10:34:34.422Z,99939.11
2017-10-12T10:37:00.388Z,99942.48
2017-10-12T10:39:26.332Z,99936.17
2017-10-12T10:41:52.292Z,99924.27
2017-10-12T10:44:18.223Z,99935.32
2017-10-12T10:46:44.370Z,99935.32
2017-10-12T10:49:10.340Z,99934.08
2017-10-12T10:51:36.270Z,99936.64
2017-10-12T10:54:02.207Z,99937.50
2017-10-12T10:56:28.155Z,99938.39
2017-10-12T10:58:54.136Z,99946.96
2017-10-12T11:01:20.084Z,99938.86
2017-10-12T11:03:46.022Z,99932.43
2017-10-12T11:06:11.956Z,99937.97
2017-10-12T11:08:37.910Z,99940.95
2017-10-12T11:11:03.837Z,99944.80
2017-10-12T11:13:29.826Z,99941.47
2017-10-12T11:15:55.804Z,99938.48
2017-10-12T11:18:21.734Z,99925.70
2017-10-12T11:20:47.689Z,99930.77
2017-10-12T11:23:13.654Z,99939.67
2017-10-12T11:25:39.598Z,99938.39
2017-10-12T11:28:05.545Z,99938.39
2017-10-12T11:30:31.492Z,99936.31
2017-10-12T11:32:57.440Z,99940.57
2017-10-12T11:35:23.394Z,99937.16
2017-10-12T11:37:49.344Z,99936.73
2017-10-12T11:40:15.288Z,99936.77
2017-10-12T11:42:41.230Z,99928.25
2017-10-12T11:45:07.190Z,99934.27
2017-10-12T11:47:33.139Z,99930.42
2017-10-12T11:49:59.086Z,99955.11
2017-10-12T11:52:25.020Z,99953.02
2017-10-12T11:54:50.996Z,99948.84
2017-10-12T11:57:16.942Z,99960.35
2017-10-12T11:59:42.890Z,99956.14
2017-10-12T12:02:08.818Z,99968.50
2017-10-12T12:04:34.766Z,99965.94
2017-10-12T12:07:00.719Z,99979.63
2017-10-12T12:09:26.654Z,99972.33
2017-10-12T12:11:52.587Z,99978.30
2017-10-12T12:14:18.548Z,99984.65
2017-10-12T12:16:44.502Z,99984.70
2017-10-12T12:19:10.444Z,99974.46
2017-10-12T12:21:36.388Z,99965.90
2017-10-12T12:24:02.350Z,99980.00
2017-10-12T12:26:28.394Z,99973.61
2017-10-12T12:28:54.334Z,99971.91
2017-10-12T12:31:20.296Z,99979.16
2017-10-12T12:33:46.236Z,99973.19
2017-10-12T12:36:12.168Z,99978.77
2017-10-12T12:38:38.136Z,99989.42
2017-10-12T12:41:04.085Z,99980.09
2017-10-12T12:43:30.022Z,100002.22
2017-10-12T12:45:55.971Z,100004.81
2017-10-12T12:48:21.928Z,100015.82
2017-10-12T12:50:47.878Z,100002.25
2017-10-12T12:53:13.827Z,100007.76
2017-10-12T12:55:39.756Z,100006.52
2017-10-12T12:58:05.694Z,100019.73
2017-10-12T13:00:31.638Z,100015.09
2017-10-12T13:02:57.604Z,100027.02
2017-10-12T13:05:23.728Z,100027.48
2017-10-12T13:07:49.665Z,100031.33
2017-10-12T13:10:15.642Z,100039.38
2017-10-12T13:12:41.581Z,100038.95
2017-10-12T13:15:07.543Z,100040.28
2017-10-12T13:17:33.546Z,100047.48
2017-10-12T13:19:59.496Z,100044.54
2017-10-12T13:22:25.442Z,100047.52
2017-10-12T13:24:51.398Z,100041.52
2017-10-12T13:27:17.341Z,100056.01
2017-10-12T13:29:43.321Z,100048.77
2017-10-12T13:32:09.268Z,100060.31
2017-10-12T13:34:35.209Z,100062.48
2017-10-12T13:37:01.162Z,100069.69
2017-10-12T13:39:27.106Z,100072.33
2017-10-12T13:41:53.079Z,100079.58
2017-10-12T13:44:19.019Z,100067.67
2017-10-12T13:46:44.980Z,100082.59
2017-10-12T13:49:10.920Z,100095.34
2017-10-12T13:51:36.872Z,100092.86
2017-10-12T13:54:02.832Z,100097.55
2017-10-12T13:56:28.796Z,100105.64
2017-10-12T13:58:54.752Z,100118.44
2017-10-12T14:01:20.689Z,100123.59
2017-10-12T14:03:46.628Z,100139.36
2017-10-12T14:06:12.576Z,100132.54
2017-10-12T14:08:38.534Z,100136.02
2017-10-12T14:11:04.500Z,100144.89
2017-10-12T14:13:30.492Z,100145.79
2017-10-12T14:15:56.443Z,100153.42
2017-10-12T14:18:22.390Z,100152.25
2017-10-12T14:20:48.347Z,100156.94
2017-10-12T14:23:14.311Z,100153.11
2017-10-12T14:25:40.262Z,100164.19
2017-10-12T14:28:06.209Z,100162.02
2017-10-12T14:30:32.145Z,100165.00
2017-10-12T14:32:58.116Z,100171.86
2017-10-12T14:35:24.072Z,100173.14
2017-10-12T14:37:50.018Z,100173.14
2017-10-12T14:40:15.996Z,100167.67
2017-10-12T14:42:41.974Z,100179.53
2017-10-12T14:45:07.952Z,100187.66
2017-10-12T14:47:33.892Z,100182.16
2017-10-12T14:49:59.858Z,100190.69
2017-10-12T14:52:25.792Z,100193.24
2017-10-12T14:54:51.750Z,100202.19
2017-10-12T14:57:17.695Z,100200.52
2017-10-12T14:59:43.672Z,100199.24
2017-10-12T15:02:09.628Z,100206.91
2017-10-12T15:04:35.612Z,100207.80
2017-10-12T15:07:01.585Z,100208.69
2017-10-12T15:09:27.542Z,100215.93
2017-10-12T15:11:53.485Z,100212.91
2017-10-12T15:14:19.460Z,100205.28
2017-10-12T15:16:45.406Z,100217.21
2017-10-12T15:19:11.386Z,100221.89
2017-10-12T15:21:37.353Z,100222.75
2017-10-12T15:24:03.328Z,100222.78
2017-10-12T15:26:29.323Z,100224.06
2017-10-12T15:28:55.283Z,100234.72
2017-10-12T15:31:21.244Z,100230.91
2017-10-12T15:33:47.195Z,100234.33
2017-10-12T15:36:13.148Z,100236.03
2017-10-12T15:38:39.192Z,100239.86
2017-10-12T15:41:05.202Z,100245.41
2017-10-12T15:43:31.226Z,100253.95
2017-10-12T15:45:57.254Z,100256.52
2017-10-12T15:48:23.216Z,100265.89
2017-10-12T15:50:49.185Z,100269.73
2017-10-12T15:53:15.163Z,100269.33
2017-10-12T15:55:41.266Z,100276.15
2017-10-12T15:58:07.392Z,100273.63
2017-10-12T16:00:33.353Z,100274.41
2017-10-12T16:02:59.354Z,100282.97
2017-10-12T16:05:25.353Z,100287.69
2017-10-12T16:07:51.306Z,100283.45
2017-10-12T16:10:17.280Z,100290.89
2017-10-12T16:12:43.241Z,100288.42
2017-10-12T16:15:09.270Z,100296.06
2017-10-12T16:20:15.672Z,100301.27
2017-10-12T16:25:07.654Z,100311.61
2017-10-12T16:27:33.856Z,100314.29
2017-10-12T16:32:26.044Z,100318.61
2017-10-12T16:34:52.062Z,100322.45
2017-10-12T16:37:18.046Z,100330.80
2017-10-12T16:39:44.109Z,100329.65
2017-10-12T16:42:10.125Z,100336.59
2017-10-12T16:44:36.126Z,100336.67
2017-10-12T16:47:02.428Z,100338.11
2017-10-12T16:49:28.379Z,100336.45
2017-10-12T16:51:54.377Z,100342.89
2017-10-12T16:54:20.370Z,100342.07
2017-10-12T16:56:46.324Z,100343.86
2017-10-12T16:59:12.366Z,100340.91
2017-10-12T17:01:38.320Z,100348.20
2017-10-12T17:04:04.260Z,100350.38
2017-10-12T17:06:30.280Z,100349.16
2017-10-12T17:08:56.272Z,100354.72
2017-10-12T17:11:22.272Z,100351.80
2017-10-12T17:13:48.220Z,100353.51
2017-10-12T17:16:14.166Z,100357.81
2017-10-12T17:18:40.132Z,100364.69
2017-10-12T17:21:06.076Z,100363.47
2017-10-12T17:25:58.104Z,100364.69
2017-10-12T17:28:24.066Z,100367.09
2017-10-12T17:30:50.048Z,100366.05
2017-10-12T17:33:16.004Z,100372.07
2017-10-12T17:35:41.948Z,100370.91
2017-10-12T17:38:07.910Z,100372.06
2017-10-12T17:40:33.911Z,100375.66
2017-10-12T17:42:59.879Z,100382.84
2017-10-12T17:45:25.844Z,100389.59
2017-10-12T17:47:51.929Z,100391.73
2017-10-12T17:50:17.956Z,100393.31
2017-10-12T17:52:43.913Z,100391.45
2017-10-12T17:55:09.904Z,100393.25
2017-10-12T17:57:35.959Z,100396.25
2017-10-12T18:00:01.985Z,100404.41
2017-10-12T18:02:27.942Z,100405.28
2017-10-12T18:04:53.887Z,100406.13
2017-10-12T18:07:19.916Z,100400.27
2017-10-12T18:09:45.919Z,100410.67
2017-10-12T18:12:26.968Z,100412.88
2017-10-12T18:14:37.981Z,100417.55
2017-10-12T18:17:03.934Z,100410.98
2017-10-12T18:19:29.932Z,100414.02
2017-10-12T18:21:55.884Z,100421.80
2017-10-12T18:24:21.858Z,100421.53
2017-10-12T18:26:47.802Z,100430.17
2017-10-12T18:29:13.808Z,100427.77
2017-10-12T18:31:39.956Z,100429.14
2017-10-12T18:34:06.018Z,100438.61
2017-10-12T18:36:31.990Z,100444.72
2017-10-12T18:38:57.956Z,100440.92
2017-10-12T18:41:23.904Z,100441.00
2017-10-12T18:43:49.908Z,100437.23
2017-10-12T18:46:15.925Z,100439.88
2017-10-12T18:48:41.891Z,100440.77
2017-10-12T18:51:07.849Z,100444.27
2017-10-12T18:53:33.796Z,100452.03
2017-10-12T18:55:59.918Z,100446.95
2017-10-12T18:58:25.877Z,100450.44
2017-10-12T19:00:51.844Z,100455.22
2017-10-12T19:03:17.793Z,100453.16
2017-10-12T19:05:43.740Z,100459.63
2017-10-12T19:08:09.924Z,100466.12
2017-10-12T19:10:35.888Z,100465.34
2017-10-12T19:13:01.839Z,100462.45
2017-10-12T19:15:28.187Z,100465.52
2017-10-12T19:17:55.960Z,100465.98
2017-10-12T19:20:21.960Z,100468.62
2017-10-12T19:22:48.255Z,100471.70
2017-10-12T19:25:14.253Z,100475.20
2017-10-12T19:27:40.248Z,100474.41
2017-10-12T19:30:06.218Z,100471.03
2017-10-12T19:32:32.530Z,100470.61
2017-10-12T19:34:58.508Z,100474.09
2017-10-12T19:37:24.452Z,100477.15
2017-10-12T19:39:50.499Z,100468.22
2017-10-12T19:42:16.449Z,100474.69
2017-10-12T19:44:42.406Z,100477.71
2017-10-12T19:47:08.338Z,100470.49
2017-10-12T19:49:34.308Z,100474.33
2017-10-12T19:54:32.816Z,100473.62
2017-10-12T19:56:58.760Z,100474.50
2017-10-12T19:59:24.708Z,100474.11
2017-10-12T20:01:50.641Z,100478.41
2017-10-12T20:04:16.592Z,100480.31
2017-10-12T20:06:42.529Z,100482.20
2017-10-12T20:09:08.459Z,100480.67
2017-10-12T20:11:34.396Z,100486.11
2017-10-12T20:16:26.405Z,100491.27
2017-10-12T20:18:52.365Z,100494.03
2017-10-12T20:21:18.478Z,100486.48
2017-10-12T20:23:44.629Z,100492.42
2017-10-12T20:26:10.650Z,100503.36
2017-10-12T20:28:36.637Z,100503.30
2017-10-12T20:31:02.585Z,100499.98
2017-10-12T20:33:28.544Z,100509.88
2017-10-12T20:35:54.490Z,100509.91
2017-10-12T20:38:20.501Z,100507.00
2017-10-12T20:40:46.475Z,100509.98
2017-10-12T20:43:12.639Z,100517.28
2017-10-12T20:45:38.599Z,100514.26
2017-10-12T20:48:04.576Z,100522.40
2017-10-12T20:50:30.537Z,100524.96
2017-10-12T20:52:56.483Z,100520.27
2017-10-12T20:55:22.423Z,100520.73
2017-10-12T20:57:48.415Z,100524.60
2017-10-12T21:00:14.372Z,100521.16
2017-10-12T21:05:06.352Z,100523.36
2017-10-12T21:07:32.340Z,100520.80
2017-10-12T21:09:58.271Z,100521.65
2017-10-12T21:12:24.205Z,100516.95
2017-10-12T21:14:50.145Z,100516.56
2017-10-12T21:17:16.071Z,100525.49
2017-10-12T21:19:42.045Z,100520.41
2017-10-12T21:22:07.983Z,100525.95
2017-10-12T21:24:33.969Z,100525.98
2017-10-12T21:26:59.921Z,100523.00
2017-10-12T21:29:25.855Z,100526.88
2017-10-12T21:31:51.843Z,100536.23
2017-10-12T21:34:17.787Z,100534.09
2017-10-12T21:36:43.719Z,100536.72
2017-10-12T21:39:09.699Z,100538.44
2017-10-12T21:41:35.667Z,100529.47
2017-10-12T21:44:01.609Z,100530.32
2017-10-12T21:46:27.781Z,100532.92
2017-10-12T21:48:53.791Z,100530.78
2017-10-12T21:51:19.791Z,100529.08
2017-10-12T21:53:45.812Z,100534.23
2017-10-12T21:56:11.942Z,100537.64
2017-10-12T21:58:37.960Z,100536.36
2017-10-12T22:01:03.975Z,100537.22
2017-10-12T22:03:29.987Z,100541.09
2017-10-12T22:05:55.996Z,100529.64
2017-10-12T22:08:22.007Z,100541.52
2017-10-12T22:10:48.013Z,100541.09
2017-10-12T22:13:14.008Z,100544.97
2017-10-12T22:15:40.035Z,100545.81
2017-10-12T22:18:06.057Z,100553.11
2017-10-12T22:20:32.059Z,100550.97
2017-10-12T22:22:58.102Z,100549.27
2017-10-12T22:25:24.091Z,100549.69
2017-10-12T22:27:50.097Z,100551.44
2017-10-12T22:30:16.103Z,100541.59
2017-10-12T22:32:42.109Z,100546.73
2017-10-12T22:35:08.130Z,100544.61
2017-10-12T22:37:34.122Z,100550.16
2017-10-12T22:40:00.144Z,100553.14
2017-10-12T22:42:26.136Z,100559.58
2017-10-12T22:44:52.162Z,100556.62
2017-10-12T22:47:18.180Z,100565.58
2017-10-12T22:49:44.182Z,100570.27
2017-10-12T22:52:10.403Z,100567.75
2017-10-12T22:54:36.391Z,100571.16
2017-10-12T22:57:02.386Z,100569.88
2017-10-12T22:59:28.374Z,100573.30
2017-10-12T23:01:54.363Z,100568.63
2017-10-12T23:04:20.391Z,100564.36
2017-10-12T23:06:46.416Z,100565.25
2017-10-12T23:09:12.411Z,100564.36
2017-10-12T23:11:38.406Z,100568.20
2017-10-12T23:14:04.418Z,100574.60
2017-10-12T23:16:30.420Z,100575.91
2017-10-12T23:18:56.425Z,100583.17
2017-10-12T23:21:22.446Z,100575.48
2017-10-12T23:23:48.447Z,100586.16
2017-10-12T23:26:14.469Z,100587.47
2017-10-12T23:28:40.464Z,100586.19
2017-10-12T23:31:06.450Z,100584.48
2017-10-12T23:33:32.456Z,100590.02
2017-10-12T23:35:58.442Z,100595.14
2017-10-12T23:38:24.434Z,100594.33
2017-10-12T23:40:50.438Z,100595.17
2017-10-12T23:43:16.459Z,100592.19
2017-10-12T23:45:42.450Z,100587.95
2017-10-12T23:48:08.439Z,100587.53
2017-10-12T23:50:34.437Z,100590.12
2017-10-12T23:53:00.454Z,100582.98
2017-10-12T23:55:26.513Z,100599.47
2017-10-12T23:57:52.532Z,100600.78
